createdAt,value
2023-01-30T00:02:26.251Z,12.70
2023-01-30T00:04:54.199Z,12.87
2023-01-30T00:07:23.371Z,13.80
2023-01-30T00:09:51.160Z,12.40
2023-01-30T00:12:18.940Z,13.03
2023-01-30T00:14:46.730Z,12.83
2023-01-30T00:17:14.543Z,13.20
2023-01-30T00:19:42.440Z,14.47
2023-01-30T00:22:10.335Z,13.97
2023-01-30T00:24:39.638Z,14.17
2023-01-30T00:27:07.635Z,13.70
2023-01-30T00:29:37.103Z,14.57
2023-01-30T00:32:04.975Z,13.00
2023-01-30T00:34:32.802Z,14.37
2023-01-30T00:37:08.076Z,13.27
2023-01-30T00:39:36.551Z,14.87
2023-01-30T00:42:23.900Z,14.50
2023-01-30T00:45:09.146Z,13.97
2023-01-30T00:47:37.012Z,15.37
2023-01-30T00:50:05.493Z,15.87
2023-01-30T00:52:33.357Z,15.70
2023-01-30T00:55:01.258Z,16.93
2023-01-30T00:57:30.571Z,15.00
2023-01-30T00:59:58.455Z,17.07
2023-01-30T01:02:26.420Z,17.13
2023-01-30T01:04:54.261Z,16.33
2023-01-30T01:07:22.224Z,18.27
2023-01-30T01:09:50.047Z,15.77
2023-01-30T01:12:17.906Z,15.17
2023-01-30T01:14:47.139Z,15.07
2023-01-30T01:17:15.036Z,15.60
2023-01-30T01:19:43.222Z,14.90
2023-01-30T01:22:11.057Z,15.90
2023-01-30T01:24:38.800Z,15.40
2023-01-30T01:27:06.565Z,15.40
2023-01-30T01:29:34.334Z,15.13
2023-01-30T01:32:03.558Z,15.23
2023-01-30T01:34:31.334Z,15.27
2023-01-30T01:36:59.609Z,15.23
2023-01-30T01:39:47.402Z,15.50
2023-01-30T01:42:14.156Z,17.00
2023-01-30T01:45:01.702Z,15.87
2023-01-30T01:47:32.549Z,15.33
2023-01-30T01:50:00.840Z,15.67
2023-01-30T01:52:30.341Z,17.47
2023-01-30T01:55:02.471Z,16.50
2023-01-30T01:57:35.902Z,14.67
2023-01-30T02:00:09.882Z,17.70
2023-01-30T02:02:48.885Z,18.87
2023-01-30T02:05:21.059Z,16.00
2023-01-30T02:07:53.400Z,16.70
2023-01-30T02:10:24.544Z,15.63
2023-01-30T02:12:52.850Z,14.87
2023-01-30T02:15:23.069Z,15.87
2023-01-30T02:17:52.198Z,15.20
2023-01-30T02:20:28.808Z,15.13
2023-01-30T02:23:27.331Z,15.30
2023-01-30T02:26:47.188Z,15.97
2023-01-30T02:29:48.426Z,15.10
2023-01-30T02:32:25.576Z,14.83
2023-01-30T02:35:02.730Z,15.67
2023-01-30T02:37:44.240Z,15.47
2023-01-30T02:40:24.583Z,14.90
2023-01-30T02:43:02.814Z,15.67
2023-01-30T02:45:37.453Z,15.87
2023-01-30T02:48:08.681Z,15.30
2023-01-30T02:50:41.781Z,14.87
2023-01-30T02:53:09.985Z,15.00
2023-01-30T02:55:41.068Z,15.07
2023-01-30T02:58:09.107Z,14.30
2023-01-30T03:00:53.740Z,14.17
2023-01-30T03:03:44.835Z,14.93
2023-01-30T03:06:30.212Z,14.23
2023-01-30T03:09:08.679Z,14.73
2023-01-30T03:11:45.767Z,14.80
2023-01-30T03:14:21.720Z,14.40
2023-01-30T03:16:53.261Z,14.80
2023-01-30T03:19:22.789Z,14.83
2023-01-30T03:21:50.556Z,15.47
2023-01-30T03:24:19.222Z,14.77
2023-01-30T03:26:54.072Z,14.73
2023-01-30T03:29:21.979Z,15.10
2023-01-30T03:31:50.049Z,15.03
2023-01-30T03:34:17.882Z,15.33
2023-01-30T03:36:48.079Z,14.80
2023-01-30T03:39:16.947Z,15.53
2023-01-30T03:41:45.091Z,15.80
2023-01-30T03:44:13.088Z,14.90
2023-01-30T03:46:43.112Z,15.30
2023-01-30T03:49:10.978Z,16.20
2023-01-30T03:51:38.837Z,15.17
2023-01-30T03:54:08.136Z,14.80
2023-01-30T03:56:35.954Z,16.10
2023-01-30T03:59:03.901Z,15.10
2023-01-30T04:01:39.400Z,14.90
2023-01-30T04:04:07.441Z,15.23
2023-01-30T04:06:36.642Z,15.17
2023-01-30T04:09:06.054Z,14.67
2023-01-30T04:11:54.783Z,15.27
2023-01-30T04:14:23.708Z,14.87
2023-01-30T04:17:17.595Z,15.70
2023-01-30T04:20:09.632Z,14.37
2023-01-30T04:22:39.256Z,14.60
2023-01-30T04:25:07.560Z,15.80
2023-01-30T04:27:36.761Z,15.27
2023-01-30T04:30:14.050Z,15.33
2023-01-30T04:32:42.762Z,14.27
2023-01-30T04:35:12.301Z,15.93
2023-01-30T04:37:41.059Z,14.57
2023-01-30T04:40:12.112Z,14.30
2023-01-30T04:42:41.392Z,14.93
2023-01-30T04:45:38.699Z,14.73
2023-01-30T04:48:06.893Z,15.03
2023-01-30T04:50:35.726Z,15.40
2023-01-30T04:53:03.648Z,15.37
2023-01-30T04:55:31.439Z,14.73
2023-01-30T04:58:00.726Z,14.43
2023-01-30T05:00:28.837Z,15.37
2023-01-30T05:03:00.529Z,15.93
2023-01-30T05:05:29.155Z,16.70
2023-01-30T05:07:56.983Z,15.07
2023-01-30T05:10:24.839Z,15.27
2023-01-30T05:12:52.771Z,16.33
2023-01-30T05:15:22.193Z,16.63
2023-01-30T05:17:50.159Z,15.83
2023-01-30T05:20:18.454Z,16.13
2023-01-30T05:22:46.338Z,16.63
2023-01-30T05:25:14.185Z,15.87
2023-01-30T05:27:42.047Z,16.30
2023-01-30T05:30:11.256Z,16.63
2023-01-30T05:32:40.532Z,15.90
2023-01-30T05:35:09.261Z,15.80
2023-01-30T05:37:37.856Z,16.33
2023-01-30T05:40:07.063Z,16.83
2023-01-30T05:42:34.985Z,16.93
2023-01-30T05:45:02.759Z,15.87
2023-01-30T05:47:30.567Z,16.43
2023-01-30T05:49:59.788Z,15.93
2023-01-30T05:52:27.799Z,15.57
2023-01-30T05:54:55.704Z,16.13
2023-01-30T05:57:23.546Z,16.10
2023-01-30T05:59:51.407Z,15.83
2023-01-30T06:02:19.216Z,15.33
2023-01-30T06:04:47.115Z,16.50
2023-01-30T06:07:16.885Z,15.93
2023-01-30T06:09:44.738Z,15.73
2023-01-30T06:12:12.562Z,15.47
2023-01-30T06:14:40.510Z,15.23
2023-01-30T06:17:08.344Z,15.83
2023-01-30T06:19:36.219Z,34.63
2023-01-30T06:22:04.230Z,17.23
2023-01-30T06:24:33.497Z,15.93
2023-01-30T06:27:01.317Z,15.73
2023-01-30T06:29:29.088Z,16.07
2023-01-30T06:31:56.913Z,14.80
2023-01-30T06:34:24.737Z,15.63
2023-01-30T06:36:52.613Z,15.73
2023-01-30T06:39:20.455Z,15.60
2023-01-30T06:41:49.737Z,15.17
2023-01-30T06:44:17.613Z,14.57
2023-01-30T06:46:45.672Z,14.53
2023-01-30T06:49:13.502Z,15.37
2023-01-30T06:51:41.305Z,15.00
2023-01-30T06:54:09.112Z,14.70
2023-01-30T06:56:37.023Z,14.13
2023-01-30T06:59:06.204Z,18.00
2023-01-30T07:01:34.080Z,20.03
2023-01-30T07:04:01.929Z,15.13
2023-01-30T07:06:29.781Z,13.73
2023-01-30T07:08:58.584Z,16.20
2023-01-30T07:11:26.683Z,18.70
2023-01-30T07:13:54.852Z,29.60
2023-01-30T07:16:29.488Z,52.27
2023-01-30T07:18:58.666Z,27.60
2023-01-30T07:21:27.276Z,31.93
2023-01-30T07:23:55.243Z,17.93
2023-01-30T07:26:23.821Z,15.50
2023-01-30T07:28:51.667Z,15.93
2023-01-30T07:31:19.586Z,15.30
2023-01-30T07:33:48.916Z,14.20
2023-01-30T07:36:16.786Z,12.97
2023-01-30T07:38:44.677Z,13.43
2023-01-30T07:41:12.527Z,13.97
2023-01-30T07:43:40.341Z,12.17
2023-01-30T07:46:08.257Z,12.33
2023-01-30T07:48:35.995Z,13.73
2023-01-30T07:51:05.126Z,11.93
2023-01-30T07:53:32.994Z,13.40
2023-01-30T07:56:00.970Z,12.23
2023-01-30T07:58:29.996Z,11.97
2023-01-30T08:00:58.768Z,11.63
2023-01-30T08:03:26.922Z,12.97
2023-01-30T08:05:54.948Z,12.93
2023-01-30T08:08:24.155Z,12.67
2023-01-30T08:10:52.202Z,11.60
2023-01-30T08:13:20.163Z,11.60
2023-01-30T08:15:48.100Z,12.40
2023-01-30T08:18:15.994Z,13.70
2023-01-30T08:20:44.638Z,11.97
2023-01-30T08:23:12.565Z,11.50
2023-01-30T08:25:41.735Z,11.60
2023-01-30T08:28:09.777Z,11.43
2023-01-30T08:30:37.771Z,11.37
2023-01-30T08:33:05.648Z,11.77
2023-01-30T08:35:33.503Z,10.73
2023-01-30T08:38:03.352Z,11.10
2023-01-30T08:40:31.259Z,9.63
2023-01-30T08:43:00.763Z,10.47
2023-01-30T08:45:28.680Z,10.13
2023-01-30T08:47:59.835Z,10.40
2023-01-30T08:50:27.959Z,10.23
2023-01-30T08:52:56.224Z,12.23
2023-01-30T08:55:24.100Z,10.33
2023-01-30T08:57:51.958Z,10.53
2023-01-30T09:00:22.318Z,9.80
2023-01-30T09:02:50.151Z,10.67
2023-01-30T09:05:18.042Z,9.47
2023-01-30T09:07:45.922Z,9.77
2023-01-30T09:10:13.770Z,9.67
2023-01-30T09:12:41.559Z,9.73
2023-01-30T09:15:10.857Z,9.87
2023-01-30T09:17:40.108Z,9.60
2023-01-30T09:20:09.684Z,9.90
2023-01-30T09:22:37.886Z,9.27
2023-01-30T09:25:06.613Z,8.90
2023-01-30T09:27:35.124Z,9.27
2023-01-30T09:30:03.003Z,8.93
2023-01-30T09:32:31.461Z,9.27
2023-01-30T09:35:00.700Z,8.87
2023-01-30T09:37:28.523Z,8.40
2023-01-30T09:39:56.441Z,8.63
2023-01-30T09:42:50.103Z,8.70
2023-01-30T09:45:34.110Z,8.10
2023-01-30T09:48:10.786Z,7.40
2023-01-30T09:51:00.238Z,7.63
2023-01-30T09:53:36.102Z,7.77
2023-01-30T09:56:04.005Z,8.03
2023-01-30T09:58:42.280Z,8.00
2023-01-30T10:01:22.363Z,8.10
2023-01-30T10:04:02.631Z,7.90
2023-01-30T10:06:37.220Z,7.77
2023-01-30T10:09:12.388Z,7.33
2023-01-30T10:11:54.931Z,7.40
2023-01-30T10:14:40.166Z,7.40
2023-01-30T10:17:25.374Z,6.90
2023-01-30T10:20:14.097Z,6.70
2023-01-30T10:22:56.141Z,7.87
2023-01-30T10:25:30.871Z,7.67
2023-01-30T10:28:03.892Z,6.50
2023-01-30T10:30:32.276Z,7.03
2023-01-30T10:33:05.425Z,13.17
2023-01-30T10:35:36.861Z,9.93
2023-01-30T10:38:17.242Z,7.67
2023-01-30T10:40:50.456Z,7.70
2023-01-30T10:43:27.751Z,6.53
2023-01-30T10:46:04.543Z,7.03
2023-01-30T10:48:52.980Z,6.77
2023-01-30T10:51:33.625Z,7.20
2023-01-30T10:54:09.329Z,8.30
2023-01-30T10:56:43.703Z,8.53
2023-01-30T10:59:23.788Z,7.77
2023-01-30T11:02:00.496Z,8.20
2023-01-30T11:04:34.107Z,8.07
2023-01-30T11:07:03.209Z,9.13
2023-01-30T11:09:43.884Z,7.73
2023-01-30T11:12:13.420Z,10.17
2023-01-30T11:14:52.148Z,9.13
2023-01-30T11:17:21.171Z,9.03
2023-01-30T11:19:56.442Z,8.30
2023-01-30T11:22:26.994Z,8.80
2023-01-30T11:25:07.212Z,9.03
2023-01-30T11:27:36.149Z,8.87
2023-01-30T11:30:07.164Z,9.43
2023-01-30T11:32:35.223Z,8.83
2023-01-30T11:35:17.645Z,9.70
2023-01-30T11:37:46.910Z,9.20
2023-01-30T11:40:25.623Z,8.97
2023-01-30T11:43:00.284Z,9.03
2023-01-30T11:45:30.270Z,9.20
2023-01-30T11:48:04.563Z,9.43
2023-01-30T11:50:45.039Z,9.30
2023-01-30T11:53:29.185Z,9.90
2023-01-30T11:56:06.459Z,9.23
2023-01-30T11:58:37.185Z,8.17
2023-01-30T12:01:07.024Z,8.40
2023-01-30T12:03:40.515Z,8.13
2023-01-30T12:06:08.316Z,8.70
2023-01-30T12:08:42.735Z,8.27
2023-01-30T12:11:28.348Z,8.40
2023-01-30T12:14:08.667Z,8.10
2023-01-30T12:16:47.767Z,8.43
2023-01-30T12:19:27.483Z,9.00
2023-01-30T12:22:01.464Z,8.37
2023-01-30T12:24:35.566Z,9.57
2023-01-30T12:27:10.978Z,8.90
2023-01-30T12:29:43.931Z,7.97
2023-01-30T12:32:15.472Z,9.03
2023-01-30T12:34:45.460Z,9.03
2023-01-30T12:37:31.699Z,8.70
2023-01-30T12:40:09.324Z,8.10
2023-01-30T12:42:57.980Z,8.03
2023-01-30T12:45:27.675Z,7.87
2023-01-30T12:48:29.777Z,7.63
2023-01-30T12:51:10.001Z,7.33
2023-01-30T12:53:46.013Z,8.37
2023-01-30T12:56:46.931Z,7.73
2023-01-30T12:59:23.331Z,8.30
2023-01-30T13:02:08.229Z,7.70
2023-01-30T13:05:01.833Z,7.87
2023-01-30T13:07:44.596Z,7.57
2023-01-30T13:10:20.234Z,7.50
2023-01-30T13:13:01.212Z,7.83
2023-01-30T13:15:36.175Z,6.97
2023-01-30T13:18:14.727Z,7.17
2023-01-30T13:20:58.120Z,8.00
2023-01-30T13:23:37.906Z,7.27
2023-01-30T13:26:09.863Z,9.87
2023-01-30T13:28:41.183Z,8.40
2023-01-30T13:31:15.482Z,7.20
2023-01-30T13:33:46.407Z,6.40
2023-01-30T13:36:18.222Z,7.20
2023-01-30T13:38:57.828Z,7.13
2023-01-30T13:41:26.339Z,7.47
2023-01-30T13:43:55.644Z,7.37
2023-01-30T13:46:28.503Z,7.03
2023-01-30T13:49:05.995Z,7.30
2023-01-30T13:51:44.690Z,7.17
2023-01-30T13:54:30.531Z,6.97
2023-01-30T13:57:07.402Z,6.87
2023-01-30T14:00:07.209Z,7.07
2023-01-30T14:03:24.168Z,7.70
2023-01-30T14:06:04.781Z,7.37
2023-01-30T14:08:40.003Z,7.80
2023-01-30T14:11:33.040Z,7.23
2023-01-30T14:14:05.952Z,6.93
2023-01-30T14:16:47.943Z,7.87
2023-01-30T14:19:36.437Z,8.20
2023-01-30T14:22:19.221Z,7.47
2023-01-30T14:25:25.241Z,7.93
2023-01-30T14:27:54.368Z,8.30
2023-01-30T14:30:37.988Z,8.03
2023-01-30T14:33:33.983Z,7.93
2023-01-30T14:36:41.514Z,8.40
2023-01-30T14:39:41.957Z,7.57
2023-01-30T14:42:20.044Z,8.00
2023-01-30T14:45:03.293Z,7.83
2023-01-30T14:47:35.940Z,7.57
2023-01-30T14:50:20.804Z,8.00
2023-01-30T14:52:50.534Z,8.37
2023-01-30T14:55:23.784Z,8.23
2023-01-30T14:57:56.784Z,8.47
2023-01-30T15:00:29.181Z,8.23
2023-01-30T15:03:01.498Z,8.07
2023-01-30T15:05:33.818Z,7.80
2023-01-30T15:08:09.856Z,8.37
2023-01-30T15:10:53.688Z,8.30
2023-01-30T15:13:40.983Z,9.03
2023-01-30T15:16:23.592Z,8.70
2023-01-30T15:19:11.495Z,9.50
2023-01-30T15:22:04.208Z,8.93
2023-01-30T15:24:49.985Z,9.20
2023-01-30T15:27:33.990Z,9.67
2023-01-30T15:30:26.446Z,10.93
2023-01-30T15:33:10.289Z,18.17
2023-01-30T15:35:38.131Z,11.20
2023-01-30T15:38:05.983Z,11.70
2023-01-30T15:40:33.957Z,12.57
2023-01-30T15:43:38.015Z,16.33
2023-01-30T15:46:14.272Z,11.63
2023-01-30T15:48:56.052Z,14.53
2023-01-30T15:51:28.789Z,14.37
2023-01-30T15:53:59.195Z,11.67
2023-01-30T15:56:33.948Z,10.27
2023-01-30T15:59:04.109Z,10.10
2023-01-30T16:01:32.456Z,10.83
2023-01-30T16:04:07.982Z,11.23
2023-01-30T16:06:39.052Z,10.23
2023-01-30T16:09:19.077Z,12.57
2023-01-30T16:11:46.857Z,14.70
2023-01-30T16:14:18.243Z,12.60
2023-01-30T16:16:52.667Z,13.60
2023-01-30T16:19:29.870Z,11.97
2023-01-30T16:22:03.223Z,11.83
2023-01-30T16:24:33.081Z,13.87
2023-01-30T16:27:03.440Z,13.67
2023-01-30T16:29:34.661Z,13.03
2023-01-30T16:32:12.687Z,14.50
2023-01-30T16:34:41.782Z,12.13
2023-01-30T16:37:26.100Z,12.73
2023-01-30T16:40:05.935Z,12.67
2023-01-30T16:42:33.723Z,12.90
2023-01-30T16:45:43.168Z,12.30
2023-01-30T16:48:36.821Z,15.43
2023-01-30T16:51:17.853Z,12.20
2023-01-30T16:58:19.836Z,12.47
2023-01-30T17:00:52.110Z,13.73
2023-01-30T17:03:23.979Z,14.00
2023-01-30T17:05:52.576Z,11.63
2023-01-30T17:08:47.005Z,11.70
2023-01-30T17:11:35.868Z,11.30
2023-01-30T17:14:16.244Z,10.60
2023-01-30T17:16:46.256Z,10.47
2023-01-30T17:19:14.970Z,11.10
2023-01-30T17:21:59.566Z,10.20
2023-01-30T17:24:40.917Z,10.23
2023-01-30T17:27:09.107Z,9.37
2023-01-30T17:29:42.727Z,9.03
2023-01-30T17:32:25.970Z,10.77
2023-01-30T17:34:54.442Z,10.90
2023-01-30T17:37:23.137Z,9.53
2023-01-30T17:39:50.960Z,9.03
2023-01-30T17:42:21.079Z,8.47
2023-01-30T17:44:50.908Z,8.57
2023-01-30T17:47:19.016Z,14.27
2023-01-30T17:49:48.446Z,8.50
2023-01-30T17:52:16.284Z,15.77
2023-01-30T17:54:44.115Z,10.13
2023-01-30T17:57:15.565Z,8.17
2023-01-30T17:59:43.490Z,7.27
2023-01-30T18:02:11.663Z,8.03
2023-01-30T18:04:40.058Z,10.60
2023-01-30T18:07:16.479Z,9.80
2023-01-30T18:09:44.335Z,10.80
2023-01-30T18:12:14.780Z,8.50
2023-01-30T18:14:44.539Z,7.73
2023-01-30T18:17:12.670Z,8.60
2023-01-30T18:19:40.610Z,7.20
2023-01-30T18:22:09.879Z,7.33
2023-01-30T18:24:37.686Z,6.93
2023-01-30T18:27:05.625Z,6.27
2023-01-30T18:29:33.451Z,9.83
2023-01-30T18:32:07.781Z,5.87
2023-01-30T18:34:37.583Z,6.00
2023-01-30T18:37:05.552Z,7.67
2023-01-30T18:39:34.812Z,6.17
2023-01-30T18:42:03.113Z,6.70
2023-01-30T18:44:30.931Z,7.50
2023-01-30T18:46:59.142Z,5.53
2023-01-30T18:49:27.065Z,5.47
2023-01-30T18:51:54.970Z,5.17
2023-01-30T18:54:24.009Z,6.60
2023-01-30T18:56:53.280Z,8.00
2023-01-30T18:59:21.238Z,7.33
2023-01-30T19:01:49.125Z,6.13
2023-01-30T19:04:16.922Z,5.90
2023-01-30T19:06:45.261Z,4.57
2023-01-30T19:09:14.915Z,4.30
2023-01-30T19:12:00.592Z,4.37
2023-01-30T19:14:30.783Z,4.67
2023-01-30T19:16:59.631Z,4.27
2023-01-30T19:19:28.173Z,3.77
2023-01-30T19:21:56.033Z,4.60
2023-01-30T19:24:25.092Z,4.00
2023-01-30T19:26:53.106Z,4.10
2023-01-30T19:29:22.143Z,3.90
2023-01-30T19:31:57.749Z,3.87
2023-01-30T19:34:28.227Z,3.90
2023-01-30T19:36:56.076Z,6.13
2023-01-30T19:39:23.997Z,5.90
2023-01-30T19:41:51.785Z,12.03
2023-01-30T19:44:19.733Z,10.83
2023-01-30T19:46:48.301Z,18.00
2023-01-30T19:49:20.942Z,33.80
2023-01-30T19:51:48.949Z,24.63
2023-01-30T19:54:16.773Z,18.27
2023-01-30T19:56:48.319Z,15.17
2023-01-30T19:59:16.876Z,13.50
2023-01-30T20:01:47.243Z,5.17
2023-01-30T20:04:15.151Z,7.27
2023-01-30T20:06:45.993Z,8.87
2023-01-30T20:09:16.128Z,15.93
2023-01-30T20:11:44.707Z,14.53
2023-01-30T20:14:15.118Z,9.53
2023-01-30T20:16:43.516Z,5.07
2023-01-30T20:19:14.567Z,4.80
2023-01-30T20:21:44.185Z,4.87
2023-01-30T20:24:14.039Z,4.57
2023-01-30T20:26:42.579Z,6.47
2023-01-30T20:29:11.658Z,5.87
2023-01-30T20:31:40.213Z,13.23
2023-01-30T20:34:14.621Z,6.23
2023-01-30T20:36:43.901Z,4.67
2023-01-30T20:39:12.541Z,4.63
2023-01-30T20:41:43.591Z,5.90
2023-01-30T20:44:13.497Z,5.10
2023-01-30T20:46:42.734Z,4.20
2023-01-30T20:49:14.245Z,3.83
2023-01-30T20:51:42.163Z,4.57
2023-01-30T20:54:13.303Z,4.20
2023-01-30T20:56:43.799Z,4.10
2023-01-30T20:59:13.766Z,4.80
2023-01-30T21:01:42.427Z,4.13
2023-01-30T21:04:15.650Z,4.20
2023-01-30T21:06:47.124Z,4.33
2023-01-30T21:09:18.555Z,4.73
2023-01-30T21:11:48.444Z,4.33
2023-01-30T21:14:19.350Z,4.73
2023-01-30T21:16:47.724Z,4.37
2023-01-30T21:19:16.946Z,4.33
2023-01-30T21:21:50.448Z,4.27
2023-01-30T21:24:22.439Z,4.13
2023-01-30T21:26:50.611Z,4.33
2023-01-30T21:29:25.090Z,4.70
2023-01-30T21:31:53.426Z,4.50
2023-01-30T21:34:21.463Z,4.73
2023-01-30T21:37:04.544Z,4.97
2023-01-30T21:39:52.185Z,4.83
2023-01-30T21:42:37.720Z,4.50
2023-01-30T21:45:07.462Z,5.30
2023-01-30T21:47:35.340Z,4.80
2023-01-30T21:50:03.232Z,7.30
2023-01-30T21:52:33.122Z,5.20
2023-01-30T21:55:02.411Z,5.43
2023-01-30T21:57:30.274Z,6.33
2023-01-30T21:59:59.166Z,4.37
2023-01-30T22:02:27.082Z,4.43
2023-01-30T22:04:57.695Z,3.90
2023-01-30T22:07:25.525Z,4.20
2023-01-30T22:09:53.415Z,4.07
2023-01-30T22:12:23.226Z,3.73
2023-01-30T22:14:51.054Z,3.90
2023-01-30T22:17:18.978Z,3.60
2023-01-30T22:19:47.360Z,4.03
2023-01-30T22:22:15.120Z,3.77
2023-01-30T22:24:42.987Z,3.77
2023-01-30T22:27:10.797Z,4.00
2023-01-30T22:29:40.005Z,4.03
2023-01-30T22:32:08.575Z,3.83
2023-01-30T22:34:36.854Z,3.87
2023-01-30T22:37:04.767Z,4.40
2023-01-30T22:39:32.590Z,4.00
2023-01-30T22:42:01.251Z,3.73
2023-01-30T22:44:29.190Z,3.63
2023-01-30T22:46:58.545Z,3.97
2023-01-30T22:49:26.507Z,3.80
2023-01-30T22:51:54.415Z,3.97
2023-01-30T22:54:25.433Z,3.40
2023-01-30T22:56:53.293Z,3.67
2023-01-30T22:59:21.710Z,3.87
2023-01-30T23:02:00.708Z,5.20
2023-01-30T23:04:30.361Z,4.27
2023-01-30T23:06:59.518Z,3.70
2023-01-30T23:09:27.319Z,3.70
2023-01-30T23:12:16.152Z,3.87
2023-01-30T23:14:44.994Z,3.67
2023-01-30T23:17:30.092Z,3.70
2023-01-30T23:19:59.416Z,3.93
2023-01-30T23:22:27.679Z,4.57
2023-01-30T23:24:55.513Z,4.53
2023-01-30T23:27:23.478Z,4.20
2023-01-30T23:29:51.329Z,3.97
2023-01-30T23:32:20.567Z,4.03
2023-01-30T23:34:48.934Z,4.13
2023-01-30T23:37:18.177Z,4.20
2023-01-30T23:39:46.441Z,3.70
2023-01-30T23:42:14.300Z,4.23
2023-01-30T23:44:42.083Z,4.27
2023-01-30T23:47:10.347Z,4.23
2023-01-30T23:49:38.721Z,4.07
2023-01-30T23:52:07.222Z,4.27
2023-01-30T23:54:36.727Z,4.10
2023-01-30T23:57:04.633Z,4.07
2023-01-30T23:59:32.921Z,4.27
